EDT,Max TemperatureF,Mean TemperatureF,Min TemperatureF,Max Dew PointF,MeanDew PointF,Min DewpointF,Max Humidity, Mean Humidity, Min Humidity, Max Sea Level PressureIn, Mean Sea Level PressureIn, Min Sea Level PressureIn, Max VisibilityMiles, Mean VisibilityMiles, Min VisibilityMiles, Max Wind SpeedMPH, Mean Wind SpeedMPH, Max Gust SpeedMPH,PrecipitationIn, CloudCover, Events, WindDirDegrees
2013-3-1,30,28,26,27,22,19,93,80,74,30.03,29.95,29.86,10,6,1,16,11,22,0.00,8,Snow,342
2013-3-2,28,26,23,22,20,18,86,78,69,30.01,29.97,29.94,10,6,2,15,9,21,0.00,8,Snow,346
2013-3-3,26,24,21,21,18,16,93,82,72,30.05,29.98,29.93,10,5,2,14,8,17,0.02,8,Snow,300
2013-3-4,35,25,15,19,17,11,92,72,50,30.15,30.10,30.01,10,10,7,13,6,17,0.01,2,,295
2013-3-5,43,31,19,22,18,14,86,59,35,30.11,29.91,29.65,10,10,9,15,4,24,0.00,3,,87
2013-3-6,43,36,30,29,28,23,89,74,51,30.17,29.90,29.65,10,8,1,16,10,23,0.03,7,Snow,52
2013-3-7,39,34,28,30,28,23,89,80,65,30.35,30.26,30.16,10,8,4,12,6,,0.00,8,Snow,332
2013-3-8,39,32,24,27,24,21,91,79,62,30.46,30.42,30.34,10,10,7,12,6,17,0.00,4,,348
2013-3-9,54,36,19,30,25,17,93,64,38,30.43,30.29,30.13,10,8,4,7,2,,0.00,1,,149
2013-3-10,66,55,44,36,32,26,71,40,28,30.10,30.01,29.88,10,10,9,15,8,23,0.00,2,Rain,182
2013-3-11,60,52,44,47,40,32,93,67,35,29.88,29.75,29.59,10,8,2,23,10,30,0.60,7,Rain,205
2013-3-12,42,38,34,36,29,24,82,74,64,29.99,29.88,29.76,10,10,10,18,11,23,0.00,8,,251
2013-3-13,32,29,26,28,23,17,93,78,59,30.17,29.99,29.89,10,5,0,22,11,31,0.00,8,Fog-Snow,270
2013-3-14,39,29,21,21,18,16,78,63,45,30.25,30.19,30.13,10,10,10,17,13,26,0.00,4,,278
2013-3-15,45,36,28,35,28,20,96,72,58,30.12,29.93,29.84,10,8,3,17,9,24,0.06,6,Rain,258
2013-3-16,37,32,28,34,31,24,100,91,82,30.01,29.79,29.65,10,6,1,13,5,,0.09,8,Rain-Snow,43
2013-3-17,34,30,27,25,22,17,86,71,54,30.21,30.14,30.01,10,10,9,12,6,,0.00,6,,10
2013-3-18,46,36,27,45,33,18,100,87,64,30.15,29.78,29.60,10,5,2,28,7,34,0.51,7,Rain,154
2013-3-19,39,34,26,36,21,16,86,68,52,29.97,29.82,29.68,10,8,2,26,17,40,0.00,7,Rain-Snow,257
2013-3-20,33,26,21,21,18,15,86,71,52,29.98,29.91,29.86,10,7,1,17,11,25,0.00,6,Snow,274
2013-3-21,28,21,14,23,16,8,86,74,60,29.93,29.89,29.84,10,7,2,16,11,22,0.00,6,Snow,271
2013-3-22,36,30,24,21,19,18,81,71,52,30.02,29.96,29.89,10,8,4,15,10,18,0.00,7,Snow,275
2013-3-23,44,31,19,23,20,15,85,65,43,30.07,30.03,29.99,10,9,5,12,2,,0.00,2,,2
2013-3-24,36,30,25,22,21,19,81,66,52,30.00,29.79,29.50,10,10,10,16,8,22,0.00,3,,66
2013-3-25,35,32,30,32,30,24,93,89,64,29.82,29.54,29.40,10,3,1,13,8,21,0.36,8,Snow,42
2013-3-26,39,36,32,31,29,27,93,83,62,30.10,29.96,29.80,10,8,2,15,8,20,0.00,8,Snow,309
2013-3-27,44,38,32,30,28,24,93,73,49,30.17,30.13,30.07,10,9,2,17,10,25,0.00,7,Snow,286
2013-3-28,45,39,34,30,26,24,76,64,49,30.27,30.22,30.14,10,10,10,13,9,17,0.00,8,,303
2013-3-29,51,39,28,28,24,17,75,54,33,30.27,30.24,30.20,10,10,10,16,4,21,0.00,3,,294
2013-3-30,54,38,24,27,22,19,81,54,28,30.25,30.15,29.99,10,10,7,13,2,16,0.00,0,,183
2013-3-31,51,46,41,45,34,21,87,64,40,29.98,29.77,29.69,10,10,10,14,5,22,0.01,4,Rain,211